sensor_id;sensor_type;location;lat;lon;timestamp;P1;durP1;ratioP1;P2;durP2;ratioP2
33802;SDS011;20110;53.120;5.786;2022-10-17T00:00:32;15.43;;;4.75;;
33802;SDS011;20110;53.120;5.786;2022-10-17T00:02:58;13.02;;;4.80;;
33802;SDS011;20110;53.120;5.786;2022-10-17T00:05:24;25.90;;;5.13;;
33802;SDS011;20110;53.120;5.786;2022-10-17T00:07:50;10.00;;;4.15;;
33802;SDS011;20110;53.120;5.786;2022-10-17T00:10:17;12.77;;;4.47;;
33802;SDS011;20110;53.120;5.786;2022-10-17T00:12:46;10.90;;;4.13;;
33802;SDS011;20110;53.120;5.786;2022-10-17T00:15:15;17.88;;;4.90;;
33802;SDS011;20110;53.120;5.786;2022-10-17T00:17:44;13.13;;;4.47;;
33802;SDS011;20110;53.120;5.786;2022-10-17T00:20:10;15.10;;;3.95;;
33802;SDS011;20110;53.120;5.786;2022-10-17T00:22:37;12.07;;;3.67;;
33802;SDS011;20110;53.120;5.786;2022-10-17T00:25:03;17.77;;;4.05;;
33802;SDS011;20110;53.120;5.786;2022-10-17T00:27:29;12.77;;;4.80;;
33802;SDS011;20110;53.120;5.786;2022-10-17T00:29:58;10.25;;;3.65;;
33802;SDS011;20110;53.120;5.786;2022-10-17T00:32:23;21.52;;;4.40;;
33802;SDS011;20110;53.120;5.786;2022-10-17T00:34:49;16.60;;;4.53;;
33802;SDS011;20110;53.120;5.786;2022-10-17T00:37:15;19.42;;;4.00;;
33802;SDS011;20110;53.120;5.786;2022-10-17T00:39:41;19.27;;;3.97;;
33802;SDS011;20110;53.120;5.786;2022-10-17T00:42:08;11.98;;;3.80;;
33802;SDS011;20110;53.120;5.786;2022-10-17T00:47:09;15.10;;;3.95;;
33802;SDS011;20110;53.120;5.786;2022-10-17T00:49:40;23.00;;;3.85;;
33802;SDS011;20110;53.120;5.786;2022-10-17T00:52:10;8.38;;;3.83;;
33802;SDS011;20110;53.120;5.786;2022-10-17T00:54:55;14.63;;;4.00;;
33802;SDS011;20110;53.120;5.786;2022-10-17T00:57:40;11.85;;;3.55;;
33802;SDS011;20110;53.120;5.786;2022-10-17T01:00:09;8.55;;;3.85;;
33802;SDS011;20110;53.120;5.786;2022-10-17T01:02:36;15.18;;;4.68;;
33802;SDS011;20110;53.120;5.786;2022-10-17T01:05:02;16.30;;;4.35;;
33802;SDS011;20110;53.120;5.786;2022-10-17T01:07:28;15.63;;;4.30;;
33802;SDS011;20110;53.120;5.786;2022-10-17T01:09:55;14.32;;;4.75;;
33802;SDS011;20110;53.120;5.786;2022-10-17T01:12:25;11.43;;;5.07;;
33802;SDS011;20110;53.120;5.786;2022-10-17T01:15:38;9.00;;;4.55;;
33802;SDS011;20110;53.120;5.786;2022-10-17T01:24:11;10.75;;;5.35;;
33802;SDS011;20110;53.120;5.786;2022-10-17T01:26:52;7.70;;;4.78;;
33802;SDS011;20110;53.120;5.786;2022-10-17T01:31:57;13.45;;;5.35;;
33802;SDS011;20110;53.120;5.786;2022-10-17T01:34:55;14.27;;;5.28;;
33802;SDS011;20110;53.120;5.786;2022-10-17T01:37:36;11.17;;;6.03;;
33802;SDS011;20110;53.120;5.786;2022-10-17T01:40:35;17.63;;;6.35;;
33802;SDS011;20110;53.120;5.786;2022-10-17T01:43:24;14.20;;;5.57;;
33802;SDS011;20110;53.120;5.786;2022-10-17T01:46:04;10.68;;;5.95;;
33802;SDS011;20110;53.120;5.786;2022-10-17T01:48:36;15.80;;;6.55;;
33802;SDS011;20110;53.120;5.786;2022-10-17T01:51:07;13.35;;;6.32;;
33802;SDS011;20110;53.120;5.786;2022-10-17T01:53:46;11.95;;;6.03;;
33802;SDS011;20110;53.120;5.786;2022-10-17T01:56:18;12.20;;;6.15;;
33802;SDS011;20110;53.120;5.786;2022-10-17T01:58:49;13.10;;;6.78;;
33802;SDS011;20110;53.120;5.786;2022-10-17T02:01:25;18.15;;;7.40;;
33802;SDS011;20110;53.120;5.786;2022-10-17T02:03:54;21.95;;;7.97;;
33802;SDS011;20110;53.120;5.786;2022-10-17T02:06:23;13.38;;;6.90;;
33802;SDS011;20110;53.120;5.786;2022-10-17T02:08:49;18.63;;;7.88;;
33802;SDS011;20110;53.120;5.786;2022-10-17T02:11:22;14.73;;;7.22;;
33802;SDS011;20110;53.120;5.786;2022-10-17T02:20:34;20.40;;;8.80;;
33802;SDS011;20110;53.120;5.786;2022-10-17T02:26:25;19.38;;;8.35;;
33802;SDS011;20110;53.120;5.786;2022-10-17T02:31:40;23.83;;;8.95;;
33802;SDS011;20110;53.120;5.786;2022-10-17T02:34:30;15.57;;;9.07;;
33802;SDS011;20110;53.120;5.786;2022-10-17T02:37:07;22.40;;;9.68;;
33802;SDS011;20110;53.120;5.786;2022-10-17T02:39:39;19.30;;;9.35;;
33802;SDS011;20110;53.120;5.786;2022-10-17T02:42:08;17.10;;;9.85;;
33802;SDS011;20110;53.120;5.786;2022-10-17T02:44:38;24.10;;;10.40;;
33802;SDS011;20110;53.120;5.786;2022-10-17T02:47:12;18.27;;;9.95;;
33802;SDS011;20110;53.120;5.786;2022-10-17T02:49:49;24.88;;;10.55;;
33802;SDS011;20110;53.120;5.786;2022-10-17T02:55:02;21.98;;;10.45;;
33802;SDS011;20110;53.120;5.786;2022-10-17T02:57:38;20.42;;;10.43;;
33802;SDS011;20110;53.120;5.786;2022-10-17T03:00:11;16.40;;;10.77;;
33802;SDS011;20110;53.120;5.786;2022-10-17T03:02:49;19.67;;;11.05;;
33802;SDS011;20110;53.120;5.786;2022-10-17T03:05:18;26.50;;;10.75;;
33802;SDS011;20110;53.120;5.786;2022-10-17T03:07:47;17.40;;;10.18;;
33802;SDS011;20110;53.120;5.786;2022-10-17T03:10:13;19.02;;;12.02;;
33802;SDS011;20110;53.120;5.786;2022-10-17T03:12:40;26.58;;;10.98;;
33802;SDS011;20110;53.120;5.786;2022-10-17T03:15:06;19.02;;;11.20;;
33802;SDS011;20110;53.120;5.786;2022-10-17T03:17:33;24.38;;;11.05;;
33802;SDS011;20110;53.120;5.786;2022-10-17T03:20:00;17.45;;;11.63;;
33802;SDS011;20110;53.120;5.786;2022-10-17T03:22:26;21.60;;;11.10;;
33802;SDS011;20110;53.120;5.786;2022-10-17T03:24:52;23.83;;;11.77;;
33802;SDS011;20110;53.120;5.786;2022-10-17T03:27:17;23.40;;;11.60;;
33802;SDS011;20110;53.120;5.786;2022-10-17T03:29:43;19.65;;;11.80;;
33802;SDS011;20110;53.120;5.786;2022-10-17T03:32:09;17.90;;;11.48;;
33802;SDS011;20110;53.120;5.786;2022-10-17T03:34:35;21.42;;;11.77;;
33802;SDS011;20110;53.120;5.786;2022-10-17T03:37:00;26.23;;;12.60;;
33802;SDS011;20110;53.120;5.786;2022-10-17T03:39:26;18.48;;;11.40;;
33802;SDS011;20110;53.120;5.786;2022-10-17T03:41:52;20.40;;;12.75;;
33802;SDS011;20110;53.120;5.786;2022-10-17T03:44:18;20.15;;;12.90;;
33802;SDS011;20110;53.120;5.786;2022-10-17T03:46:44;20.77;;;13.20;;
33802;SDS011;20110;53.120;5.786;2022-10-17T03:49:09;25.13;;;14.48;;
33802;SDS011;20110;53.120;5.786;2022-10-17T03:51:35;25.05;;;15.45;;
33802;SDS011;20110;53.120;5.786;2022-10-17T03:54:01;26.35;;;15.77;;
33802;SDS011;20110;53.120;5.786;2022-10-17T03:56:27;27.75;;;15.75;;
33802;SDS011;20110;53.120;5.786;2022-10-17T03:58:56;27.13;;;14.73;;
33802;SDS011;20110;53.120;5.786;2022-10-17T04:01:22;27.55;;;16.40;;
33802;SDS011;20110;53.120;5.786;2022-10-17T04:03:49;30.55;;;16.08;;
33802;SDS011;20110;53.120;5.786;2022-10-17T04:06:20;28.08;;;16.30;;
33802;SDS011;20110;53.120;5.786;2022-10-17T04:08:46;28.25;;;17.10;;
33802;SDS011;20110;53.120;5.786;2022-10-17T04:11:14;30.55;;;17.27;;
33802;SDS011;20110;53.120;5.786;2022-10-17T04:13:43;24.65;;;16.42;;
33802;SDS011;20110;53.120;5.786;2022-10-17T04:16:11;33.15;;;18.45;;
33802;SDS011;20110;53.120;5.786;2022-10-17T04:18:39;27.80;;;17.65;;
33802;SDS011;20110;53.120;5.786;2022-10-17T04:21:06;37.10;;;17.92;;
33802;SDS011;20110;53.120;5.786;2022-10-17T04:23:34;31.98;;;17.23;;
33802;SDS011;20110;53.120;5.786;2022-10-17T04:26:00;28.98;;;16.42;;
33802;SDS011;20110;53.120;5.786;2022-10-17T04:28:29;28.65;;;17.35;;
33802;SDS011;20110;53.120;5.786;2022-10-17T04:30:56;31.95;;;17.10;;
33802;SDS011;20110;53.120;5.786;2022-10-17T04:33:33;33.10;;;18.33;;
33802;SDS011;20110;53.120;5.786;2022-10-17T04:36:00;27.27;;;18.08;;
33802;SDS011;20110;53.120;5.786;2022-10-17T04:38:38;22.65;;;15.82;;
33802;SDS011;20110;53.120;5.786;2022-10-17T04:41:05;33.17;;;17.35;;
33802;SDS011;20110;53.120;5.786;2022-10-17T04:43:36;31.90;;;18.40;;
33802;SDS011;20110;53.120;5.786;2022-10-17T04:46:04;29.65;;;17.38;;
33802;SDS011;20110;53.120;5.786;2022-10-17T04:48:33;25.20;;;16.60;;
33802;SDS011;20110;53.120;5.786;2022-10-17T04:51:00;32.70;;;17.60;;
33802;SDS011;20110;53.120;5.786;2022-10-17T04:53:33;28.60;;;17.30;;
33802;SDS011;20110;53.120;5.786;2022-10-17T04:56:06;30.00;;;18.08;;
33802;SDS011;20110;53.120;5.786;2022-10-17T04:58:41;27.58;;;17.75;;
33802;SDS011;20110;53.120;5.786;2022-10-17T05:01:09;26.20;;;16.73;;
33802;SDS011;20110;53.120;5.786;2022-10-17T05:03:38;23.48;;;14.90;;
33802;SDS011;20110;53.120;5.786;2022-10-17T05:06:08;21.15;;;15.13;;
33802;SDS011;20110;53.120;5.786;2022-10-17T05:08:41;21.23;;;13.30;;
33802;SDS011;20110;53.120;5.786;2022-10-17T05:11:21;29.25;;;15.80;;
33802;SDS011;20110;53.120;5.786;2022-10-17T05:13:57;24.75;;;16.40;;
33802;SDS011;20110;53.120;5.786;2022-10-17T05:16:25;25.98;;;16.23;;
33802;SDS011;20110;53.120;5.786;2022-10-17T05:18:53;24.17;;;15.68;;
33802;SDS011;20110;53.120;5.786;2022-10-17T05:21:22;27.67;;;17.45;;
33802;SDS011;20110;53.120;5.786;2022-10-17T05:23:50;22.90;;;15.93;;
33802;SDS011;20110;53.120;5.786;2022-10-17T05:26:16;29.00;;;15.77;;
33802;SDS011;20110;53.120;5.786;2022-10-17T05:28:43;29.35;;;16.92;;
33802;SDS011;20110;53.120;5.786;2022-10-17T05:31:09;27.50;;;16.73;;
33802;SDS011;20110;53.120;5.786;2022-10-17T05:33:35;26.77;;;16.50;;
33802;SDS011;20110;53.120;5.786;2022-10-17T05:36:02;28.58;;;16.48;;
33802;SDS011;20110;53.120;5.786;2022-10-17T05:38:30;23.15;;;16.63;;
33802;SDS011;20110;53.120;5.786;2022-10-17T05:40:59;25.88;;;16.38;;
33802;SDS011;20110;53.120;5.786;2022-10-17T05:43:27;25.00;;;16.95;;
33802;SDS011;20110;53.120;5.786;2022-10-17T05:45:54;26.77;;;15.43;;
33802;SDS011;20110;53.120;5.786;2022-10-17T05:48:20;28.23;;;16.27;;
33802;SDS011;20110;53.120;5.786;2022-10-17T05:50:47;29.20;;;16.42;;
33802;SDS011;20110;53.120;5.786;2022-10-17T05:53:13;25.08;;;16.25;;
33802;SDS011;20110;53.120;5.786;2022-10-17T05:55:40;31.02;;;16.25;;
33802;SDS011;20110;53.120;5.786;2022-10-17T05:58:06;34.53;;;17.30;;
33802;SDS011;20110;53.120;5.786;2022-10-17T06:00:32;26.38;;;16.52;;
33802;SDS011;20110;53.120;5.786;2022-10-17T06:02:57;26.98;;;16.38;;
33802;SDS011;20110;53.120;5.786;2022-10-17T06:05:23;33.85;;;16.52;;
33802;SDS011;20110;53.120;5.786;2022-10-17T06:07:49;25.88;;;16.25;;
33802;SDS011;20110;53.120;5.786;2022-10-17T06:10:16;26.30;;;15.50;;
33802;SDS011;20110;53.120;5.786;2022-10-17T06:12:44;24.95;;;15.50;;
33802;SDS011;20110;53.120;5.786;2022-10-17T06:15:10;23.42;;;15.45;;
33802;SDS011;20110;53.120;5.786;2022-10-17T06:17:37;22.48;;;12.70;;
33802;SDS011;20110;53.120;5.786;2022-10-17T06:20:03;23.85;;;15.80;;
33802;SDS011;20110;53.120;5.786;2022-10-17T06:22:29;21.83;;;13.90;;
33802;SDS011;20110;53.120;5.786;2022-10-17T06:24:55;21.23;;;14.48;;
33802;SDS011;20110;53.120;5.786;2022-10-17T06:27:21;28.63;;;15.35;;
33802;SDS011;20110;53.120;5.786;2022-10-17T06:29:47;21.55;;;14.23;;
33802;SDS011;20110;53.120;5.786;2022-10-17T06:32:12;29.15;;;15.10;;
33802;SDS011;20110;53.120;5.786;2022-10-17T06:34:38;25.13;;;14.43;;
33802;SDS011;20110;53.120;5.786;2022-10-17T06:37:04;20.27;;;14.20;;
33802;SDS011;20110;53.120;5.786;2022-10-17T06:39:30;21.35;;;13.80;;
33802;SDS011;20110;53.120;5.786;2022-10-17T06:42:01;20.65;;;13.68;;
33802;SDS011;20110;53.120;5.786;2022-10-17T06:44:28;23.08;;;13.32;;
33802;SDS011;20110;53.120;5.786;2022-10-17T06:46:56;19.58;;;12.90;;
33802;SDS011;20110;53.120;5.786;2022-10-17T06:49:23;23.40;;;13.50;;
33802;SDS011;20110;53.120;5.786;2022-10-17T06:51:49;20.08;;;12.63;;
33802;SDS011;20110;53.120;5.786;2022-10-17T06:54:15;17.58;;;12.02;;
33802;SDS011;20110;53.120;5.786;2022-10-17T06:56:41;23.23;;;13.10;;
33802;SDS011;20110;53.120;5.786;2022-10-17T06:59:08;21.55;;;13.02;;
33802;SDS011;20110;53.120;5.786;2022-10-17T07:01:34;17.70;;;12.32;;
33802;SDS011;20110;53.120;5.786;2022-10-17T07:04:00;21.20;;;10.75;;
33802;SDS011;20110;53.120;5.786;2022-10-17T07:06:26;16.92;;;12.15;;
33802;SDS011;20110;53.120;5.786;2022-10-17T07:08:52;17.38;;;11.32;;
33802;SDS011;20110;53.120;5.786;2022-10-17T07:11:20;18.10;;;12.75;;
33802;SDS011;20110;53.120;5.786;2022-10-17T07:13:47;19.70;;;12.30;;
33802;SDS011;20110;53.120;5.786;2022-10-17T07:16:14;20.85;;;11.27;;
33802;SDS011;20110;53.120;5.786;2022-10-17T07:18:41;16.33;;;11.82;;
33802;SDS011;20110;53.120;5.786;2022-10-17T07:21:07;20.73;;;11.38;;
33802;SDS011;20110;53.120;5.786;2022-10-17T07:23:34;19.83;;;12.52;;
33802;SDS011;20110;53.120;5.786;2022-10-17T07:26:03;19.70;;;11.90;;
33802;SDS011;20110;53.120;5.786;2022-10-17T07:28:36;20.05;;;11.05;;
33802;SDS011;20110;53.120;5.786;2022-10-17T07:31:05;16.63;;;11.25;;
33802;SDS011;20110;53.120;5.786;2022-10-17T07:33:34;14.70;;;10.55;;
33802;SDS011;20110;53.120;5.786;2022-10-17T07:36:00;17.95;;;10.35;;
33802;SDS011;20110;53.120;5.786;2022-10-17T07:38:27;15.27;;;10.52;;
33802;SDS011;20110;53.120;5.786;2022-10-17T07:40:54;22.17;;;10.77;;
33802;SDS011;20110;53.120;5.786;2022-10-17T07:43:31;13.05;;;10.43;;
33802;SDS011;20110;53.120;5.786;2022-10-17T07:45:57;13.48;;;9.75;;
33802;SDS011;20110;53.120;5.786;2022-10-17T07:48:25;13.52;;;9.25;;
33802;SDS011;20110;53.120;5.786;2022-10-17T07:50:51;15.63;;;10.30;;
33802;SDS011;20110;53.120;5.786;2022-10-17T07:53:17;15.15;;;10.18;;
33802;SDS011;20110;53.120;5.786;2022-10-17T07:55:43;16.65;;;10.30;;
33802;SDS011;20110;53.120;5.786;2022-10-17T07:58:10;16.98;;;10.50;;
33802;SDS011;20110;53.120;5.786;2022-10-17T08:00:38;16.52;;;9.25;;
33802;SDS011;20110;53.120;5.786;2022-10-17T08:03:04;15.00;;;10.38;;
33802;SDS011;20110;53.120;5.786;2022-10-17T08:05:31;17.77;;;10.68;;
33802;SDS011;20110;53.120;5.786;2022-10-17T08:07:57;19.33;;;10.32;;
33802;SDS011;20110;53.120;5.786;2022-10-17T08:10:23;12.00;;;8.95;;
33802;SDS011;20110;53.120;5.786;2022-10-17T08:12:55;14.75;;;9.02;;
33802;SDS011;20110;53.120;5.786;2022-10-17T08:15:23;12.43;;;10.30;;
33802;SDS011;20110;53.120;5.786;2022-10-17T08:17:50;16.23;;;9.18;;
33802;SDS011;20110;53.120;5.786;2022-10-17T08:20:18;13.90;;;10.00;;
33802;SDS011;20110;53.120;5.786;2022-10-17T08:22:49;12.73;;;9.98;;
33802;SDS011;20110;53.120;5.786;2022-10-17T08:25:16;20.55;;;10.30;;
33802;SDS011;20110;53.120;5.786;2022-10-17T08:27:42;13.60;;;10.27;;
33802;SDS011;20110;53.120;5.786;2022-10-17T08:30:08;12.27;;;8.93;;
33802;SDS011;20110;53.120;5.786;2022-10-17T08:32:34;10.73;;;7.72;;
33802;SDS011;20110;53.120;5.786;2022-10-17T08:35:00;10.68;;;8.80;;
33802;SDS011;20110;53.120;5.786;2022-10-17T08:37:26;11.25;;;8.63;;
33802;SDS011;20110;53.120;5.786;2022-10-17T08:39:54;13.63;;;8.60;;
33802;SDS011;20110;53.120;5.786;2022-10-17T08:45:51;11.10;;;8.75;;
33802;SDS011;20110;53.120;5.786;2022-10-17T08:48:24;8.60;;;6.38;;
33802;SDS011;20110;53.120;5.786;2022-10-17T08:51:09;9.93;;;6.28;;
33802;SDS011;20110;53.120;5.786;2022-10-17T08:53:53;12.23;;;6.93;;
33802;SDS011;20110;53.120;5.786;2022-10-17T08:56:58;12.77;;;8.27;;
33802;SDS011;20110;53.120;5.786;2022-10-17T08:59:26;15.20;;;7.88;;
33802;SDS011;20110;53.120;5.786;2022-10-17T09:01:58;18.65;;;7.82;;
33802;SDS011;20110;53.120;5.786;2022-10-17T09:04:44;17.30;;;9.18;;
33802;SDS011;20110;53.120;5.786;2022-10-17T09:10:18;18.15;;;8.07;;
33802;SDS011;20110;53.120;5.786;2022-10-17T09:13:08;11.18;;;8.18;;
33802;SDS011;20110;53.120;5.786;2022-10-17T09:15:56;10.45;;;7.25;;
33802;SDS011;20110;53.120;5.786;2022-10-17T09:18:39;14.80;;;8.80;;
33802;SDS011;20110;53.120;5.786;2022-10-17T09:24:03;13.57;;;8.57;;
33802;SDS011;20110;53.120;5.786;2022-10-17T09:26:39;14.27;;;9.48;;
33802;SDS011;20110;53.120;5.786;2022-10-17T09:29:19;14.88;;;9.45;;
33802;SDS011;20110;53.120;5.786;2022-10-17T09:31:51;21.10;;;7.70;;
33802;SDS011;20110;53.120;5.786;2022-10-17T09:34:43;11.68;;;7.15;;
33802;SDS011;20110;53.120;5.786;2022-10-17T09:37:12;14.45;;;7.43;;
33802;SDS011;20110;53.120;5.786;2022-10-17T09:39:41;18.13;;;8.60;;
33802;SDS011;20110;53.120;5.786;2022-10-17T09:42:09;15.18;;;10.10;;
33802;SDS011;20110;53.120;5.786;2022-10-17T09:50:20;17.52;;;10.68;;
33802;SDS011;20110;53.120;5.786;2022-10-17T09:52:53;12.77;;;8.38;;
33802;SDS011;20110;53.120;5.786;2022-10-17T09:58:13;17.92;;;10.50;;
33802;SDS011;20110;53.120;5.786;2022-10-17T10:00:43;21.30;;;12.48;;
33802;SDS011;20110;53.120;5.786;2022-10-17T10:05:39;24.92;;;12.48;;
33802;SDS011;20110;53.120;5.786;2022-10-17T10:08:14;28.98;;;12.98;;
33802;SDS011;20110;53.120;5.786;2022-10-17T10:10:43;21.60;;;12.32;;
33802;SDS011;20110;53.120;5.786;2022-10-17T10:15:40;25.25;;;13.43;;
33802;SDS011;20110;53.120;5.786;2022-10-17T10:21:12;23.25;;;13.57;;
33802;SDS011;20110;53.120;5.786;2022-10-17T10:23:43;20.83;;;12.82;;
33802;SDS011;20110;53.120;5.786;2022-10-17T10:29:31;18.92;;;11.68;;
33802;SDS011;20110;53.120;5.786;2022-10-17T10:34:59;23.15;;;12.65;;
33802;SDS011;20110;53.120;5.786;2022-10-17T10:37:37;31.73;;;13.32;;
33802;SDS011;20110;53.120;5.786;2022-10-17T10:42:45;24.75;;;14.00;;
33802;SDS011;20110;53.120;5.786;2022-10-17T10:45:16;30.88;;;14.23;;
33802;SDS011;20110;53.120;5.786;2022-10-17T10:56:07;30.50;;;13.98;;
33802;SDS011;20110;53.120;5.786;2022-10-17T11:07:17;25.83;;;14.18;;
33802;SDS011;20110;53.120;5.786;2022-10-17T11:13:02;24.60;;;13.38;;
33802;SDS011;20110;53.120;5.786;2022-10-17T11:18:46;16.65;;;10.82;;
33802;SDS011;20110;53.120;5.786;2022-10-17T11:24:15;22.88;;;10.43;;
33802;SDS011;20110;53.120;5.786;2022-10-17T11:26:59;18.80;;;9.38;;
33802;SDS011;20110;53.120;5.786;2022-10-17T11:29:32;14.90;;;9.02;;
33802;SDS011;20110;53.120;5.786;2022-10-17T11:32:09;19.38;;;10.45;;
33802;SDS011;20110;53.120;5.786;2022-10-17T11:34:43;22.35;;;10.82;;
33802;SDS011;20110;53.120;5.786;2022-10-17T11:37:24;20.67;;;10.57;;
33802;SDS011;20110;53.120;5.786;2022-10-17T11:40:02;15.93;;;9.20;;
33802;SDS011;20110;53.120;5.786;2022-10-17T11:42:46;21.52;;;8.50;;
33802;SDS011;20110;53.120;5.786;2022-10-17T11:45:30;11.88;;;8.82;;
33802;SDS011;20110;53.120;5.786;2022-10-17T11:48:14;16.33;;;10.23;;
33802;SDS011;20110;53.120;5.786;2022-10-17T11:50:50;18.38;;;10.45;;
33802;SDS011;20110;53.120;5.786;2022-10-17T11:53:30;12.48;;;8.30;;
33802;SDS011;20110;53.120;5.786;2022-10-17T11:56:08;18.58;;;8.48;;
33802;SDS011;20110;53.120;5.786;2022-10-17T11:58:40;19.33;;;9.70;;
33802;SDS011;20110;53.120;5.786;2022-10-17T12:01:23;9.52;;;7.55;;
33802;SDS011;20110;53.120;5.786;2022-10-17T12:04:27;7.97;;;6.50;;
33802;SDS011;20110;53.120;5.786;2022-10-17T12:07:21;9.38;;;6.47;;
33802;SDS011;20110;53.120;5.786;2022-10-17T12:16:51;8.02;;;5.60;;
33802;SDS011;20110;53.120;5.786;2022-10-17T12:21:25;11.93;;;6.60;;
33802;SDS011;20110;53.120;5.786;2022-10-17T12:23:53;11.07;;;6.18;;
33802;SDS011;20110;53.120;5.786;2022-10-17T12:26:26;12.05;;;6.85;;
33802;SDS011;20110;53.120;5.786;2022-10-17T12:28:54;12.70;;;6.73;;
33802;SDS011;20110;53.120;5.786;2022-10-17T12:31:22;11.60;;;6.60;;
33802;SDS011;20110;53.120;5.786;2022-10-17T12:33:51;10.02;;;6.07;;
33802;SDS011;20110;53.120;5.786;2022-10-17T12:49:42;7.60;;;5.38;;
33802;SDS011;20110;53.120;5.786;2022-10-17T12:54:59;13.57;;;5.00;;
33802;SDS011;20110;53.120;5.786;2022-10-17T12:57:41;7.20;;;4.65;;
33802;SDS011;20110;53.120;5.786;2022-10-17T13:00:47;13.30;;;4.65;;
33802;SDS011;20110;53.120;5.786;2022-10-17T13:03:21;10.75;;;3.63;;
33802;SDS011;20110;53.120;5.786;2022-10-17T13:05:59;13.10;;;4.32;;
33802;SDS011;20110;53.120;5.786;2022-10-17T13:08:31;10.20;;;4.43;;
33802;SDS011;20110;53.120;5.786;2022-10-17T13:11:01;7.05;;;3.78;;
33802;SDS011;20110;53.120;5.786;2022-10-17T13:13:36;7.32;;;4.57;;
33802;SDS011;20110;53.120;5.786;2022-10-17T13:16:33;6.50;;;3.90;;
33802;SDS011;20110;53.120;5.786;2022-10-17T13:19:15;8.70;;;4.00;;
33802;SDS011;20110;53.120;5.786;2022-10-17T13:21:54;8.85;;;4.00;;
33802;SDS011;20110;53.120;5.786;2022-10-17T13:24:32;5.70;;;3.58;;
33802;SDS011;20110;53.120;5.786;2022-10-17T13:27:01;5.75;;;3.90;;
33802;SDS011;20110;53.120;5.786;2022-10-17T13:29:29;11.23;;;4.45;;
33802;SDS011;20110;53.120;5.786;2022-10-17T13:32:00;14.95;;;5.25;;
33802;SDS011;20110;53.120;5.786;2022-10-17T13:34:29;12.32;;;4.32;;
33802;SDS011;20110;53.120;5.786;2022-10-17T13:36:57;8.90;;;3.78;;
33802;SDS011;20110;53.120;5.786;2022-10-17T13:39:44;5.97;;;3.75;;
33802;SDS011;20110;53.120;5.786;2022-10-17T13:42:23;9.02;;;3.80;;
33802;SDS011;20110;53.120;5.786;2022-10-17T13:44:52;7.93;;;3.50;;
33802;SDS011;20110;53.120;5.786;2022-10-17T13:47:20;11.73;;;3.55;;
33802;SDS011;20110;53.120;5.786;2022-10-17T13:49:49;7.97;;;4.38;;
33802;SDS011;20110;53.120;5.786;2022-10-17T13:52:25;7.75;;;3.70;;
33802;SDS011;20110;53.120;5.786;2022-10-17T13:54:54;7.60;;;3.72;;
33802;SDS011;20110;53.120;5.786;2022-10-17T13:57:32;7.57;;;3.10;;
33802;SDS011;20110;53.120;5.786;2022-10-17T13:59:58;6.65;;;3.40;;
33802;SDS011;20110;53.120;5.786;2022-10-17T14:02:29;6.63;;;3.25;;
33802;SDS011;20110;53.120;5.786;2022-10-17T14:07:37;7.03;;;3.65;;
33802;SDS011;20110;53.120;5.786;2022-10-17T14:10:18;7.22;;;2.85;;
33802;SDS011;20110;53.120;5.786;2022-10-17T14:13:06;8.38;;;3.40;;
33802;SDS011;20110;53.120;5.786;2022-10-17T14:15:55;4.82;;;2.85;;
33802;SDS011;20110;53.120;5.786;2022-10-17T14:18:32;6.55;;;4.07;;
33802;SDS011;20110;53.120;5.786;2022-10-17T14:21:01;8.18;;;2.88;;
33802;SDS011;20110;53.120;5.786;2022-10-17T14:26:13;8.30;;;3.28;;
33802;SDS011;20110;53.120;5.786;2022-10-17T14:28:46;9.73;;;3.53;;
33802;SDS011;20110;53.120;5.786;2022-10-17T14:31:30;6.63;;;4.00;;
33802;SDS011;20110;53.120;5.786;2022-10-17T14:34:00;7.80;;;3.40;;
33802;SDS011;20110;53.120;5.786;2022-10-17T14:36:29;5.32;;;3.15;;
33802;SDS011;20110;53.120;5.786;2022-10-17T14:38:59;11.57;;;4.55;;
33802;SDS011;20110;53.120;5.786;2022-10-17T14:41:28;9.18;;;3.15;;
33802;SDS011;20110;53.120;5.786;2022-10-17T14:44:03;6.18;;;3.33;;
33802;SDS011;20110;53.120;5.786;2022-10-17T14:46:42;9.52;;;4.13;;
33802;SDS011;20110;53.120;5.786;2022-10-17T14:49:15;9.57;;;4.00;;
33802;SDS011;20110;53.120;5.786;2022-10-17T14:54:47;11.00;;;3.47;;
33802;SDS011;20110;53.120;5.786;2022-10-17T14:57:19;5.82;;;2.80;;
33802;SDS011;20110;53.120;5.786;2022-10-17T14:59:49;8.15;;;3.67;;
33802;SDS011;20110;53.120;5.786;2022-10-17T15:02:15;15.10;;;4.50;;
33802;SDS011;20110;53.120;5.786;2022-10-17T15:04:41;11.40;;;4.13;;
33802;SDS011;20110;53.120;5.786;2022-10-17T15:07:14;5.82;;;3.97;;
33802;SDS011;20110;53.120;5.786;2022-10-17T15:09:41;5.93;;;3.40;;
33802;SDS011;20110;53.120;5.786;2022-10-17T15:12:14;5.20;;;3.03;;
33802;SDS011;20110;53.120;5.786;2022-10-17T15:14:43;13.50;;;3.67;;
33802;SDS011;20110;53.120;5.786;2022-10-17T15:17:16;7.00;;;3.50;;
33802;SDS011;20110;53.120;5.786;2022-10-17T15:19:49;5.13;;;3.33;;
33802;SDS011;20110;53.120;5.786;2022-10-17T15:22:15;8.80;;;3.50;;
33802;SDS011;20110;53.120;5.786;2022-10-17T15:24:42;9.02;;;4.53;;
33802;SDS011;20110;53.120;5.786;2022-10-17T15:27:21;10.70;;;3.38;;
33802;SDS011;20110;53.120;5.786;2022-10-17T15:29:48;13.48;;;5.82;;
33802;SDS011;20110;53.120;5.786;2022-10-17T15:32:15;4.95;;;3.35;;
33802;SDS011;20110;53.120;5.786;2022-10-17T15:34:41;8.35;;;3.20;;
33802;SDS011;20110;53.120;5.786;2022-10-17T15:37:13;12.55;;;3.75;;
33802;SDS011;20110;53.120;5.786;2022-10-17T15:39:53;7.07;;;3.92;;
33802;SDS011;20110;53.120;5.786;2022-10-17T15:42:25;7.22;;;3.90;;
33802;SDS011;20110;53.120;5.786;2022-10-17T15:44:53;5.35;;;3.85;;
33802;SDS011;20110;53.120;5.786;2022-10-17T15:49:57;11.25;;;3.75;;
33802;SDS011;20110;53.120;5.786;2022-10-17T15:52:24;4.78;;;2.95;;
33802;SDS011;20110;53.120;5.786;2022-10-17T15:54:51;4.72;;;3.00;;
33802;SDS011;20110;53.120;5.786;2022-10-17T15:57:22;7.03;;;3.22;;
33802;SDS011;20110;53.120;5.786;2022-10-17T15:59:52;8.45;;;4.15;;
33802;SDS011;20110;53.120;5.786;2022-10-17T16:02:21;5.82;;;3.35;;
33802;SDS011;20110;53.120;5.786;2022-10-17T16:04:48;9.57;;;3.92;;
33802;SDS011;20110;53.120;5.786;2022-10-17T16:07:16;9.00;;;3.75;;
33802;SDS011;20110;53.120;5.786;2022-10-17T16:09:43;8.20;;;3.35;;
33802;SDS011;20110;53.120;5.786;2022-10-17T16:12:17;9.65;;;3.65;;
33802;SDS011;20110;53.120;5.786;2022-10-17T16:14:50;6.78;;;3.60;;
33802;SDS011;20110;53.120;5.786;2022-10-17T16:17:16;10.10;;;3.42;;
33802;SDS011;20110;53.120;5.786;2022-10-17T16:19:42;7.13;;;3.35;;
33802;SDS011;20110;53.120;5.786;2022-10-17T16:22:16;8.05;;;3.70;;
33802;SDS011;20110;53.120;5.786;2022-10-17T16:24:55;8.15;;;3.83;;
33802;SDS011;20110;53.120;5.786;2022-10-17T16:27:24;12.75;;;4.68;;
33802;SDS011;20110;53.120;5.786;2022-10-17T16:29:50;9.82;;;3.35;;
33802;SDS011;20110;53.120;5.786;2022-10-17T16:32:16;6.20;;;3.38;;
33802;SDS011;20110;53.120;5.786;2022-10-17T16:34:41;5.60;;;3.92;;
33802;SDS011;20110;53.120;5.786;2022-10-17T16:37:07;10.73;;;4.40;;
33802;SDS011;20110;53.120;5.786;2022-10-17T16:39:33;7.88;;;3.92;;
33802;SDS011;20110;53.120;5.786;2022-10-17T16:41:59;5.28;;;3.03;;
33802;SDS011;20110;53.120;5.786;2022-10-17T16:44:25;11.00;;;3.50;;
33802;SDS011;20110;53.120;5.786;2022-10-17T16:46:50;4.80;;;3.63;;
33802;SDS011;20110;53.120;5.786;2022-10-17T16:49:16;10.43;;;4.47;;
33802;SDS011;20110;53.120;5.786;2022-10-17T16:51:42;5.32;;;4.03;;
33802;SDS011;20110;53.120;5.786;2022-10-17T16:54:08;8.43;;;4.60;;
33802;SDS011;20110;53.120;5.786;2022-10-17T16:56:34;12.18;;;4.30;;